Time;durP1;ratioP1;P1;durP2;ratioP2;P2;SDS_P1;SDS_P2;PMS_P1;PMS_P2;Temp;Humidity;BMP_temperature;BMP_pressure;BME280_temperature;BME280_humidity;BME280_pressure;Samples;Min_cycle;Max_cycle;Signal;HPM_P1;HPM_P2
2021/05/11 00:01:41;;;;;;;6.25;2.40;;;13.70;74.10;;;;;;5014943;28;20057;-73
2021/05/11 00:04:07;;;;;;;6.57;2.75;;;13.60;74.40;;;;;;5005346;28;20045;-74
2021/05/11 00:06:32;;;;;;;7.15;2.95;;;13.60;74.40;;;;;;5019320;28;20057;-73
2021/05/11 00:08:58;;;;;;;8.88;2.50;;;13.60;74.30;;;;;;5021964;28;20041;-81
2021/05/11 00:11:24;;;;;;;6.20;2.33;;;13.60;74.40;;;;;;5027156;28;20042;-77
2021/05/11 00:13:50;;;;;;;7.43;2.97;;;13.60;74.60;;;;;;5019944;28;20033;-73
2021/05/11 00:16:15;;;;;;;6.10;2.45;;;13.50;74.60;;;;;;5032576;28;20393;-75
2021/05/11 00:18:41;;;;;;;5.28;2.90;;;13.50;74.80;;;;;;5020534;28;20042;-75
2021/05/11 00:21:07;;;;;;;4.80;2.50;;;13.50;74.70;;;;;;5007585;28;20505;-73
2021/05/11 00:23:32;;;;;;;5.43;2.60;;;13.40;74.60;;;;;;5006794;28;20152;-73
2021/05/11 00:25:58;;;;;;;6.53;2.90;;;13.40;74.60;;;;;;5024688;28;20116;-80
2021/05/11 00:28:25;;;;;;;6.43;2.55;;;13.30;74.60;;;;;;5028719;28;20107;-72
2021/05/11 00:30:50;;;;;;;6.10;2.33;;;13.20;74.80;;;;;;5026252;28;20485;-73
2021/05/11 00:33:16;;;;;;;6.35;2.33;;;13.20;74.60;;;;;;5020751;28;20045;-73
2021/05/11 00:35:43;;;;;;;5.50;2.40;;;13.20;74.30;;;;;;5026247;28;20063;-73
2021/05/11 00:38:08;;;;;;;5.40;2.30;;;13.20;74.50;;;;;;5028577;28;20040;-72
2021/05/11 00:40:34;;;;;;;6.20;2.47;;;13.10;74.80;;;;;;5013340;28;20043;-75
2021/05/11 00:43:00;;;;;;;5.85;2.45;;;13.10;74.90;;;;;;5018217;28;20840;-78
2021/05/11 00:45:26;;;;;;;6.43;2.20;;;13.10;75.20;;;;;;5024976;28;20088;-72
2021/05/11 00:47:51;;;;;;;7.20;2.83;;;12.90;75.30;;;;;;5023840;28;20116;-72
2021/05/11 00:50:17;;;;;;;6.72;2.72;;;12.90;75.50;;;;;;5037112;28;20032;-72
2021/05/11 00:52:43;;;;;;;6.47;3.00;;;12.80;75.70;;;;;;5035298;28;20045;-72
2021/05/11 00:55:10;;;;;;;6.70;2.55;;;12.80;75.80;;;;;;5026258;28;20046;-72
2021/05/11 00:57:36;;;;;;;5.70;2.70;;;12.70;76.00;;;;;;5024645;28;20033;-72
2021/05/11 01:00:05;;;;;;;4.75;2.58;;;12.70;76.20;;;;;;5027593;28;20036;-76
2021/05/11 01:02:31;;;;;;;5.68;2.83;;;12.60;76.30;;;;;;5000258;28;20114;-73
2021/05/11 01:04:57;;;;;;;7.18;2.90;;;12.60;76.50;;;;;;4999092;28;20109;-81
2021/05/11 01:07:23;;;;;;;6.20;2.80;;;12.60;76.60;;;;;;4998645;28;20033;-72
2021/05/11 01:09:49;;;;;;;8.00;2.97;;;12.60;76.50;;;;;;5022922;28;20029;-73
2021/05/11 01:12:14;;;;;;;6.07;2.83;;;12.60;76.40;;;;;;5029516;28;20030;-72
2021/05/11 01:14:40;;;;;;;7.60;2.67;;;12.50;76.40;;;;;;5027648;28;20523;-72
2021/05/11 01:17:11;;;;;;;7.90;3.03;;;12.50;76.50;;;;;;5021758;28;20037;-73
2021/05/11 01:24:45;;;;;;;5.30;2.60;;;12.30;77.00;;;;;;5026729;28;20429;-73
2021/05/11 01:32:52;;;;;;;6.65;2.97;;;12.20;77.30;;;;;;5024576;28;20029;-75
2021/05/11 01:52:13;;;;;;;7.90;2.83;;;12.10;77.50;;;;;;5009032;28;20034;-76
2021/05/11 02:22:41;;;;;;;7.43;3.00;;;12.00;77.40;;;;;;5003192;28;20045;-73
2021/05/11 02:25:08;;;;;;;8.40;3.47;;;11.90;77.70;;;;;;5010932;28;20523;-74
2021/05/11 02:27:36;;;;;;;6.88;3.35;;;11.90;77.90;;;;;;5016516;28;20033;-73
2021/05/11 02:30:03;;;;;;;9.93;4.10;;;11.90;77.90;;;;;;5028802;28;20045;-73
2021/05/11 02:32:29;;;;;;;8.43;3.75;;;11.90;77.80;;;;;;5021261;28;20026;-78
2021/05/11 02:34:55;;;;;;;10.05;3.92;;;11.90;77.70;;;;;;5005630;28;20103;-75
2021/05/11 02:37:20;;;;;;;7.72;3.97;;;11.90;77.60;;;;;;5020139;28;20037;-73
2021/05/11 02:39:46;;;;;;;9.40;3.50;;;11.90;77.40;;;;;;5031827;28;20034;-74
2021/05/11 02:42:13;;;;;;;8.77;3.90;;;11.90;77.50;;;;;;5026277;28;20117;-73
2021/05/11 02:44:42;;;;;;;8.18;3.20;;;11.90;77.60;;;;;;5014112;28;20045;-74
2021/05/11 02:47:07;;;;;;;6.40;3.17;;;11.90;77.70;;;;;;5018023;28;20033;-78
2021/05/11 02:49:33;;;;;;;10.43;3.47;;;11.90;77.60;;;;;;5022837;28;20038;-73
2021/05/11 02:51:59;;;;;;;9.63;3.50;;;11.80;77.40;;;;;;5010574;28;20026;-77
2021/05/11 02:54:24;;;;;;;8.35;3.42;;;11.80;77.50;;;;;;5030517;28;20190;-74
2021/05/11 02:56:50;;;;;;;9.52;4.07;;;11.70;77.50;;;;;;5023558;28;20037;-73
2021/05/11 02:59:16;;;;;;;10.52;3.90;;;11.70;77.50;;;;;;5031589;28;20037;-73
2021/05/11 03:01:41;;;;;;;9.07;4.00;;;11.60;77.80;;;;;;5025639;28;20034;-74
2021/05/11 03:04:07;;;;;;;7.78;3.92;;;11.60;78.00;;;;;;5008995;28;20117;-78
2021/05/11 03:06:32;;;;;;;8.10;4.18;;;11.50;78.30;;;;;;5021153;28;20067;-73
2021/05/11 03:08:59;;;;;;;8.93;4.40;;;11.40;78.40;;;;;;5029064;28;20034;-74
2021/05/11 03:11:24;;;;;;;9.02;3.95;;;11.30;78.70;;;;;;5022701;28;20144;-74
2021/05/11 03:13:50;;;;;;;8.98;4.18;;;11.30;78.90;;;;;;5031292;28;20132;-74
2021/05/11 03:16:16;;;;;;;8.45;3.72;;;11.30;79.00;;;;;;5019390;28;20042;-74
2021/05/11 03:18:45;;;;;;;8.57;4.20;;;11.30;79.00;;;;;;5022246;28;20048;-79
2021/05/11 03:21:11;;;;;;;7.88;4.18;;;11.30;79.10;;;;;;5024326;28;20542;-74
2021/05/11 03:23:36;;;;;;;8.98;3.90;;;11.30;79.20;;;;;;5026073;28;20045;-78
2021/05/11 03:26:02;;;;;;;8.45;3.80;;;11.40;79.30;;;;;;5022180;28;20543;-75
2021/05/11 03:28:28;;;;;;;9.45;3.95;;;11.40;79.30;;;;;;5021967;28;20038;-73
2021/05/11 03:30:54;;;;;;;10.27;3.90;;;11.40;79.40;;;;;;5027517;28;20063;-73
2021/05/11 03:33:19;;;;;;;11.48;4.00;;;11.40;79.40;;;;;;5022961;28;20389;-74
2021/05/11 03:35:46;;;;;;;9.65;4.68;;;11.50;79.30;;;;;;5025835;28;20041;-75
2021/05/11 03:38:12;;;;;;;10.32;4.53;;;11.40;79.30;;;;;;5019410;28;20034;-84
2021/05/11 03:40:39;;;;;;;8.57;3.92;;;11.40;79.50;;;;;;5017738;28;20456;-76
2021/05/11 03:43:09;;;;;;;11.38;4.95;;;11.40;79.50;;;;;;5004870;28;20477;-73
2021/05/11 03:45:39;;;;;;;11.80;4.57;;;11.40;79.50;;;;;;5008915;28;20902;-74
2021/05/11 03:48:05;;;;;;;8.70;4.38;;;11.50;79.80;;;;;;5003919;28;20040;-77
2021/05/11 03:50:31;;;;;;;9.05;4.50;;;11.50;79.70;;;;;;5000653;28;20038;-76
2021/05/11 03:52:57;;;;;;;10.65;4.65;;;11.50;79.30;;;;;;5003160;28;21779;-76
2021/05/11 03:55:22;;;;;;;9.95;5.00;;;11.40;79.30;;;;;;5007078;28;20087;-81
2021/05/11 03:57:48;;;;;;;8.85;4.78;;;11.50;79.40;;;;;;5005301;28;20062;-78
2021/05/11 04:00:14;;;;;;;10.65;4.78;;;11.40;79.60;;;;;;5010299;28;20068;-74
2021/05/11 04:02:40;;;;;;;8.57;4.70;;;11.40;79.70;;;;;;5004784;28;20393;-74
2021/05/11 04:05:09;;;;;;;11.70;5.20;;;11.40;79.80;;;;;;4996230;28;20034;-76
2021/05/11 04:07:35;;;;;;;11.68;5.13;;;11.40;79.80;;;;;;5001407;28;20434;-75
2021/05/11 04:10:05;;;;;;;10.30;4.75;;;11.40;79.90;;;;;;5013700;28;20041;-75
2021/05/11 04:17:59;;;;;;;15.45;6.45;;;11.40;80.00;;;;;;5003363;28;20088;-84
2021/05/11 04:20:25;;;;;;;13.05;6.22;;;11.50;80.10;;;;;;4999828;28;20041;-74
2021/05/11 04:22:50;;;;;;;12.07;6.10;;;11.50;80.10;;;;;;5008358;28;20552;-75
2021/05/11 04:25:16;;;;;;;16.20;6.57;;;11.50;80.10;;;;;;5022027;28;20065;-74
2021/05/11 04:27:41;;;;;;;12.20;6.00;;;11.50;80.00;;;;;;5019888;28;20124;-74
2021/05/11 04:30:08;;;;;;;14.50;5.25;;;11.50;79.90;;;;;;5018779;28;20049;-77
2021/05/11 04:32:34;;;;;;;14.10;5.65;;;11.50;80.00;;;;;;5021604;28;20103;-76
2021/05/11 04:35:00;;;;;;;13.23;5.03;;;11.60;80.10;;;;;;5018247;28;20390;-75
2021/05/11 04:37:25;;;;;;;9.88;4.80;;;11.60;80.20;;;;;;5018289;28;20088;-79
2021/05/11 04:39:53;;;;;;;11.93;5.95;;;11.60;80.20;;;;;;5018877;28;20061;-73
2021/05/11 04:42:19;;;;;;;12.77;5.68;;;11.70;80.20;;;;;;5016265;28;20033;-79
2021/05/11 04:44:44;;;;;;;11.75;5.53;;;11.80;80.10;;;;;;5019215;28;20041;-75
2021/05/11 04:47:46;;;;;;;11.30;5.30;;;11.90;79.80;;;;;;5017972;28;20763;-77
2021/05/11 04:49:58;;;;;;;11.20;5.03;;;12.00;79.30;;;;;;5018631;28;20112;-81
2021/05/11 04:52:23;;;;;;;10.90;5.38;;;12.10;79.00;;;;;;5019498;28;20057;-85
2021/05/11 04:54:49;;;;;;;15.48;5.55;;;12.10;78.80;;;;;;5019939;28;20179;-74
2021/05/11 04:57:15;;;;;;;13.32;5.32;;;12.20;78.80;;;;;;4998927;28;20038;-74
2021/05/11 04:59:40;;;;;;;12.23;5.25;;;12.30;78.60;;;;;;4997686;28;20038;-82
2021/05/11 05:02:06;;;;;;;12.23;4.68;;;12.40;78.40;;;;;;4996199;28;20467;-80
2021/05/11 05:04:34;;;;;;;10.23;4.90;;;12.40;78.10;;;;;;4994354;28;20046;-76
2021/05/11 05:07:00;;;;;;;12.88;4.80;;;12.50;77.80;;;;;;5013780;28;20160;-80
2021/05/11 05:09:26;;;;;;;14.40;4.68;;;12.50;77.70;;;;;;4997222;28;20410;-73
2021/05/11 05:11:51;;;;;;;12.43;5.05;;;12.50;77.60;;;;;;4995563;28;20593;-76
2021/05/11 05:14:17;;;;;;;12.25;5.10;;;12.50;77.70;;;;;;4992072;28;20038;-73
2021/05/11 05:16:43;;;;;;;12.13;4.43;;;12.50;77.60;;;;;;4996282;28;20077;-74
2021/05/11 05:19:08;;;;;;;11.27;5.18;;;12.50;77.70;;;;;;5011930;28;20043;-79
2021/05/11 05:21:35;;;;;;;12.65;5.53;;;12.50;77.60;;;;;;5018414;28;20432;-73
2021/05/11 05:24:16;;;;;;;11.18;5.22;;;12.60;77.50;;;;;;5014851;28;20084;-81
2021/05/11 05:26:44;;;;;;;15.02;5.32;;;12.60;77.20;;;;;;5004296;28;20092;-81
2021/05/11 05:29:09;;;;;;;10.52;4.95;;;12.70;76.90;;;;;;5015178;28;20141;-76
2021/05/11 05:31:35;;;;;;;14.10;6.15;;;12.80;76.60;;;;;;5017303;28;20111;-74
2021/05/11 05:34:01;;;;;;;10.23;5.35;;;12.90;76.40;;;;;;5013574;28;20595;-77
2021/05/11 05:36:26;;;;;;;13.65;6.55;;;12.90;76.50;;;;;;5011065;28;20417;-75
2021/05/11 05:38:52;;;;;;;12.73;5.78;;;12.90;76.50;;;;;;5010451;28;20037;-74
2021/05/11 05:41:22;;;;;;;11.20;5.22;;;12.90;76.70;;;;;;5009382;28;20045;-75
2021/05/11 05:43:49;;;;;;;10.77;5.55;;;13.00;77.00;;;;;;5009853;28;20034;-74
2021/05/11 05:46:15;;;;;;;13.32;5.45;;;13.70;75.60;;;;;;5013054;28;20037;-69
2021/05/11 05:48:41;;;;;;;11.80;4.88;;;15.10;71.70;;;;;;5009586;28;20037;-70
2021/05/11 05:51:07;;;;;;;15.38;5.50;;;16.10;67.70;;;;;;5009987;28;20731;-75
2021/05/11 05:53:43;;;;;;;12.52;4.80;;;16.70;64.60;;;;;;5014700;28;20033;-76
2021/05/11 05:56:10;;;;;;;13.77;4.93;;;16.90;63.80;;;;;;5005326;28;20042;-70
2021/05/11 05:58:36;;;;;;;12.38;4.90;;;16.50;64.90;;;;;;4994501;28;20030;-71
2021/05/11 06:01:06;;;;;;;11.35;5.13;;;15.90;66.30;;;;;;4995071;28;20133;-76
2021/05/11 06:06:12;;;;;;;11.15;5.22;;;15.10;69.40;;;;;;4989657;28;20041;-76
2021/05/11 06:08:39;;;;;;;12.38;4.88;;;15.00;70.10;;;;;;4990641;28;20037;-73
2021/05/11 06:19:13;;;;;;;14.93;5.30;;;14.80;71.20;;;;;;4991951;28;19932;-77
2021/05/11 06:21:38;;;;;;;11.63;4.40;;;14.90;71.00;;;;;;5010153;28;20038;-77
2021/05/11 06:24:04;;;;;;;11.30;4.38;;;15.10;71.40;;;;;;5011750;28;20068;-69
2021/05/11 06:26:30;;;;;;;11.23;4.53;;;15.30;70.10;;;;;;5011423;28;20333;-74
2021/05/11 06:28:58;;;;;;;11.48;4.57;;;15.40;68.90;;;;;;5012920;28;20041;-71
2021/05/11 06:31:23;;;;;;;10.15;4.35;;;15.60;68.80;;;;;;5016420;28;20046;-71
2021/05/11 06:33:49;;;;;;;12.93;5.63;;;15.70;68.30;;;;;;5017284;28;20030;-74
2021/05/11 06:36:14;;;;;;;10.50;4.93;;;15.80;68.20;;;;;;5008227;28;20045;-69
2021/05/11 06:38:40;;;;;;;10.98;4.45;;;15.80;68.90;;;;;;4999318;28;20121;-70
2021/05/11 06:41:06;;;;;;;13.75;4.85;;;16.00;68.00;;;;;;5004344;28;20042;-76
2021/05/11 06:43:34;;;;;;;10.90;5.25;;;16.10;68.50;;;;;;5000246;28;20329;-75
2021/05/11 06:48:27;;;;;;;10.50;4.45;;;16.20;67.80;;;;;;5016625;28;20082;-73
2021/05/11 06:53:38;;;;;;;12.65;5.00;;;16.40;66.90;;;;;;4996086;28;20053;-73
2021/05/11 06:56:06;;;;;;;14.13;5.10;;;16.50;67.40;;;;;;4989110;28;20053;-72
2021/05/11 06:58:32;;;;;;;14.27;4.78;;;16.60;66.50;;;;;;5005749;28;20614;-73
2021/05/11 07:00:57;;;;;;;10.80;4.20;;;16.70;66.70;;;;;;5003261;28;20034;-73
2021/05/11 07:03:23;;;;;;;8.23;4.65;;;16.60;66.40;;;;;;5003063;28;20859;-77
2021/05/11 07:05:51;;;;;;;13.13;4.45;;;16.70;65.50;;;;;;5005696;28;20041;-69
2021/05/11 07:08:33;;;;;;;10.30;3.95;;;16.70;65.20;;;;;;5002540;28;20853;-71
2021/05/11 07:11:06;;;;;;;11.45;4.20;;;16.90;64.90;;;;;;5003153;28;20046;-74
2021/05/11 07:13:32;;;;;;;13.32;5.47;;;17.00;65.00;;;;;;5002382;28;20029;-74
2021/05/11 07:15:58;;;;;;;9.80;4.50;;;17.20;65.20;;;;;;4998896;28;20120;-72
2021/05/11 07:18:24;;;;;;;12.02;4.75;;;17.30;65.70;;;;;;5015931;28;20376;-71
2021/05/11 07:20:56;;;;;;;11.43;4.07;;;17.40;64.50;;;;;;5021966;28;20116;-69
2021/05/11 07:23:22;;;;;;;13.38;4.05;;;17.50;63.70;;;;;;5018223;28;20037;-72
2021/05/11 07:30:56;;;;;;;8.60;3.38;;;18.10;61.60;;;;;;4993811;28;20042;-71
2021/05/11 07:33:24;;;;;;;9.18;3.33;;;18.10;61.80;;;;;;4998399;28;20041;-68
2021/05/11 07:35:50;;;;;;;12.35;3.38;;;18.30;60.90;;;;;;4995710;28;20054;-69
2021/05/11 07:38:15;;;;;;;8.02;2.80;;;18.30;61.00;;;;;;4981974;28;20043;-73
2021/05/11 07:40:41;;;;;;;6.45;2.75;;;18.20;60.10;;;;;;4980573;28;20056;-70
2021/05/11 07:43:08;;;;;;;7.30;3.00;;;18.10;60.40;;;;;;4990886;28;20033;-74
2021/05/11 08:15:30;;;;;;;6.28;3.17;;;19.80;55.50;;;;;;5026332;28;20053;-73
2021/05/11 08:18:12;;;;;;;9.77;3.38;;;20.10;56.30;;;;;;5012077;28;20041;-71
2021/05/11 08:28:50;;;;;;;10.68;4.38;;;20.20;55.80;;;;;;5013121;28;20045;-73
2021/05/11 08:31:16;;;;;;;8.23;3.25;;;20.40;54.80;;;;;;4998974;28;20053;-72
2021/05/11 08:33:41;;;;;;;9.57;3.25;;;20.60;54.50;;;;;;5000395;28;20037;-77
2021/05/11 08:36:08;;;;;;;9.07;3.55;;;20.60;54.40;;;;;;4998674;28;20042;-70
2021/05/11 08:38:34;;;;;;;9.70;3.83;;;20.60;52.00;;;;;;4999522;28;20038;-70
2021/05/11 08:40:59;;;;;;;10.68;2.95;;;20.70;52.90;;;;;;5001340;28;20462;-73
2021/05/11 08:43:35;;;;;;;9.20;2.92;;;21.00;52.60;;;;;;5000866;28;20041;-73
2021/05/11 08:46:05;;;;;;;9.27;2.95;;;21.20;51.90;;;;;;5003820;28;20132;-70
2021/05/11 08:48:32;;;;;;;10.57;3.53;;;21.50;51.50;;;;;;4997591;28;20345;-69
2021/05/11 08:51:15;;;;;;;9.43;3.38;;;21.50;49.70;;;;;;4999619;28;20072;-70
2021/05/11 09:27:07;;;;;;;8.55;2.22;;;21.80;47.10;;;;;;5015718;28;20100;-81
2021/05/11 10:48:22;;;;;;;8.55;2.08;;;23.90;41.10;;;;;;5017623;28;20555;-76
2021/05/11 10:50:49;;;;;;;7.72;1.50;;;24.10;38.90;;;;;;5019070;28;20041;-82
2021/05/11 10:53:41;;;;;;;6.35;1.90;;;24.50;36.40;;;;;;5019005;28;20037;-72
2021/05/11 10:56:45;;;;;;;9.98;1.98;;;24.80;39.30;;;;;;5019364;28;21374;-75
2021/05/11 10:59:37;;;;;;;7.47;1.85;;;25.00;37.90;;;;;;5017536;28;20128;-75
2021/05/11 11:01:58;;;;;;;7.38;2.00;;;24.50;36.90;;;;;;5018564;28;20132;-73
2021/05/11 11:04:43;;;;;;;8.15;2.15;;;23.80;37.80;;;;;;5017173;28;20117;-73
2021/05/11 11:07:09;;;;;;;9.55;2.35;;;23.50;39.90;;;;;;5018874;28;20049;-73
2021/05/11 11:09:39;;;;;;;11.13;2.75;;;22.20;43.40;;;;;;5016636;28;20159;-72
2021/05/11 11:12:09;;;;;;;8.30;2.15;;;21.90;43.30;;;;;;5017827;28;20030;-73
2021/05/11 11:14:43;;;;;;;9.25;2.40;;;22.10;44.60;;;;;;5017223;28;20120;-74
2021/05/11 11:17:13;;;;;;;9.45;2.38;;;21.50;45.10;;;;;;5020783;28;20033;-78
2021/05/11 11:19:39;;;;;;;9.18;2.47;;;21.90;44.30;;;;;;5015986;28;20362;-72
2021/05/11 11:24:58;;;;;;;10.80;2.45;;;21.40;45.00;;;;;;5019511;28;21194;-72
2021/05/11 11:27:28;;;;;;;9.43;2.33;;;21.10;44.90;;;;;;5018776;28;20892;-73
2021/05/11 11:30:02;;;;;;;8.23;2.08;;;20.80;46.00;;;;;;5016956;28;20095;-74
2021/05/11 11:32:29;;;;;;;9.30;2.25;;;21.10;45.30;;;;;;4981771;28;20333;-72
2021/05/11 11:34:58;;;;;;;7.80;2.08;;;21.00;45.50;;;;;;4991943;28;20401;-73
2021/05/11 11:37:26;;;;;;;9.90;2.47;;;21.00;45.60;;;;;;5008793;28;20349;-77
2021/05/11 11:39:53;;;;;;;9.18;2.35;;;20.90;45.60;;;;;;5007878;28;20266;-71
2021/05/11 11:42:20;;;;;;;7.50;2.45;;;20.70;45.70;;;;;;5008494;28;20080;-75
2021/05/11 11:44:57;;;;;;;10.65;2.78;;;20.60;45.30;;;;;;5010421;28;20045;-73
2021/05/11 11:47:24;;;;;;;9.95;2.20;;;20.80;45.80;;;;;;5004502;28;20037;-76
2021/05/11 11:50:03;;;;;;;8.38;2.42;;;20.90;45.40;;;;;;5038853;28;20366;-75
2021/05/11 11:52:33;;;;;;;7.20;2.15;;;21.10;45.50;;;;;;5027170;28;20037;-71
2021/05/11 11:57:45;;;;;;;11.23;3.20;;;20.90;45.60;;;;;;5017695;28;20099;-78
2021/05/11 12:00:13;;;;;;;11.10;2.97;;;21.00;45.00;;;;;;5019081;28;20037;-76
2021/05/11 12:02:38;;;;;;;7.82;2.58;;;21.10;45.20;;;;;;5018195;28;20034;-80
2021/05/11 12:05:14;;;;;;;9.38;2.75;;;21.40;45.30;;;;;;5018640;28;20083;-74
2021/05/11 12:10:22;;;;;;;8.88;2.95;;;21.30;45.50;;;;;;5017465;28;21794;-77
2021/05/11 12:12:48;;;;;;;10.02;2.50;;;21.50;45.30;;;;;;5017461;28;20049;-74
2021/05/11 12:15:19;;;;;;;11.45;2.50;;;21.90;45.60;;;;;;5018734;28;20044;-75
2021/05/11 12:17:57;;;;;;;10.20;2.83;;;22.10;43.50;;;;;;5020305;28;20491;-72
2021/05/11 12:20:26;;;;;;;9.82;2.95;;;22.10;42.60;;;;;;5017606;28;20042;-79
2021/05/11 12:23:05;;;;;;;8.95;2.97;;;21.80;42.40;;;;;;5018304;28;20054;-74
2021/05/11 12:25:31;;;;;;;8.23;3.00;;;21.90;42.10;;;;;;5010727;28;20068;-81
2021/05/11 12:27:57;;;;;;;7.85;2.47;;;21.70;43.00;;;;;;5019524;28;20025;-81
2021/05/11 12:30:49;;;;;;;8.07;2.47;;;21.80;43.60;;;;;;5021604;28;20459;-76
2021/05/11 12:33:17;;;;;;;6.05;2.15;;;21.70;43.70;;;;;;5017727;28;20041;-74
2021/05/11 12:35:43;;;;;;;7.07;2.00;;;21.60;44.40;;;;;;5019713;28;20046;-73
2021/05/11 12:38:29;;;;;;;10.02;2.40;;;21.70;45.20;;;;;;5009696;28;20053;-73
2021/05/11 12:41:03;;;;;;;8.25;2.50;;;21.80;43.30;;;;;;5015110;28;20048;-80
2021/05/11 12:43:49;;;;;;;8.05;2.80;;;22.00;42.90;;;;;;4999891;28;20034;-78
2021/05/11 12:46:23;;;;;;;9.18;2.78;;;22.00;42.10;;;;;;4999046;28;20049;-78
2021/05/11 12:49:15;;;;;;;7.40;2.28;;;22.00;41.50;;;;;;5002932;28;20428;-74
2021/05/11 12:51:43;;;;;;;6.97;2.00;;;21.60;41.60;;;;;;5018909;28;20037;-73
2021/05/11 12:54:35;;;;;;;8.43;2.33;;;22.10;41.60;;;;;;5019790;28;20030;-73
2021/05/11 12:57:27;;;;;;;7.45;2.05;;;22.10;42.50;;;;;;5019805;28;20050;-74
2021/05/11 13:00:00;;;;;;;8.55;2.35;;;22.60;41.30;;;;;;5016685;28;20492;-73
2021/05/11 13:27:00;;;;;;;8.95;2.20;;;23.20;36.70;;;;;;5017508;28;20053;-72
2021/05/11 13:31:59;;;;;;;6.82;2.20;;;23.10;44.50;;;;;;5019212;28;20879;-73
2021/05/11 13:34:25;;;;;;;7.90;2.30;;;22.80;45.30;;;;;;5016267;28;20379;-77
2021/05/11 13:36:51;;;;;;;9.15;2.35;;;22.60;46.60;;;;;;5004626;28;20512;-73
2021/05/11 13:39:16;;;;;;;6.50;2.33;;;22.40;47.20;;;;;;5004252;28;20493;-79
2021/05/11 13:41:43;;;;;;;10.60;2.55;;;22.00;48.60;;;;;;5008751;28;20144;-72
2021/05/11 13:44:09;;;;;;;6.25;1.90;;;22.00;48.40;;;;;;5022694;28;20665;-72
2021/05/11 13:46:35;;;;;;;6.95;2.10;;;21.80;49.40;;;;;;5023799;28;20033;-76
2021/05/11 13:49:01;;;;;;;10.57;2.75;;;21.60;49.40;;;;;;5026501;28;20042;-71
2021/05/11 13:51:27;;;;;;;5.43;1.70;;;21.40;50.80;;;;;;5003332;28;20052;-72
2021/05/11 13:53:57;;;;;;;10.07;2.53;;;21.30;51.30;;;;;;5012408;28;20037;-75
2021/05/11 13:56:30;;;;;;;7.30;2.35;;;21.30;51.20;;;;;;5002144;28;20056;-76
2021/05/11 14:04:18;;;;;;;7.78;1.75;;;20.60;51.70;;;;;;5003443;28;20026;-69
2021/05/11 14:06:44;;;;;;;9.45;2.03;;;20.10;51.90;;;;;;5005119;28;20065;-70
2021/05/11 14:09:10;;;;;;;8.38;2.42;;;20.00;53.00;;;;;;5013071;28;20029;-70
2021/05/11 14:11:37;;;;;;;8.05;2.10;;;19.80;53.50;;;;;;5023650;28;20039;-74
2021/05/11 14:14:03;;;;;;;6.47;2.15;;;19.80;53.60;;;;;;5022332;28;20470;-71
2021/05/11 14:16:29;;;;;;;9.27;2.20;;;19.70;54.20;;;;;;5022813;28;20041;-70
2021/05/11 14:18:56;;;;;;;6.78;1.88;;;19.70;54.20;;;;;;5027217;28;20388;-73
2021/05/11 14:21:22;;;;;;;7.38;2.00;;;19.80;53.80;;;;;;5019876;28;20053;-71
2021/05/11 14:23:48;;;;;;;9.55;2.13;;;19.60;53.80;;;;;;5021611;28;20025;-71
2021/05/11 14:26:14;;;;;;;6.60;1.83;;;19.70;53.90;;;;;;5013297;28;20056;-70
2021/05/11 14:28:39;;;;;;;7.68;2.55;;;19.60;54.30;;;;;;5017613;28;20060;-70
2021/05/11 14:31:05;;;;;;;9.05;2.38;;;19.80;53.50;;;;;;5021395;28;20037;-72
2021/05/11 14:33:31;;;;;;;8.02;2.45;;;19.80;54.30;;;;;;5025014;28;20596;-72
2021/05/11 14:35:57;;;;;;;7.72;2.55;;;20.00;53.90;;;;;;5023489;28;20064;-71
2021/05/11 14:38:22;;;;;;;9.90;3.28;;;19.80;55.20;;;;;;5020866;28;20068;-71
2021/05/11 14:40:48;;;;;;;7.68;2.42;;;19.90;55.40;;;;;;5023357;28;20026;-74
2021/05/11 14:43:14;;;;;;;5.85;1.50;;;19.80;53.60;;;;;;5020566;28;20443;-71
2021/05/11 14:45:40;;;;;;;6.43;2.00;;;19.60;53.80;;;;;;5023122;28;20721;-71
2021/05/11 14:48:06;;;;;;;8.23;2.40;;;19.20;54.80;;;;;;5005162;28;20553;-70
2021/05/11 14:50:32;;;;;;;11.10;2.47;;;19.30;55.00;;;;;;5005853;28;20112;-69
2021/05/11 14:52:58;;;;;;;8.02;2.50;;;19.80;54.00;;;;;;5000035;28;20489;-70
2021/05/11 14:55:25;;;;;;;8.82;2.30;;;19.80;51.10;;;;;;4999301;28;20064;-70
2021/05/11 14:57:59;;;;;;;8.20;2.38;;;19.90;51.00;;;;;;4999387;28;20046;-69
2021/05/11 15:00:25;;;;;;;7.75;2.83;;;20.20;50.10;;;;;;5010160;28;20461;-69
2021/05/11 15:02:50;;;;;;;8.40;2.30;;;19.60;50.00;;;;;;5020981;28;20064;-70
2021/05/11 15:05:16;;;;;;;14.43;2.42;;;19.10;52.00;;;;;;5020514;28;20051;-69
2021/05/11 15:07:42;;;;;;;7.40;2.03;;;19.20;52.80;;;;;;5020634;28;20117;-70
2021/05/11 15:10:08;;;;;;;8.80;2.50;;;19.10;52.70;;;;;;5021036;28;20108;-69
2021/05/11 15:12:34;;;;;;;9.25;3.38;;;19.10;52.80;;;;;;5022468;28;20060;-74
2021/05/11 15:15:00;;;;;;;8.45;3.30;;;19.10;54.50;;;;;;5022816;28;20049;-74
2021/05/11 15:19:55;;;;;;;11.30;5.90;;;19.20;53.80;;;;;;5000390;28;20052;-74
2021/05/11 15:22:21;;;;;;;9.60;6.15;;;19.20;56.20;;;;;;5017365;28;20381;-73
2021/05/11 15:24:49;;;;;;;9.40;6.22;;;19.10;55.50;;;;;;5006677;28;20088;-71
2021/05/11 15:27:15;;;;;;;15.45;6.45;;;18.90;55.70;;;;;;5000312;28;20037;-70
2021/05/11 15:29:41;;;;;;;10.90;5.40;;;19.00;57.10;;;;;;5012532;28;20128;-73
2021/05/11 15:32:53;;;;;;;11.82;5.65;;;19.00;57.00;;;;;;5020978;28;20136;-70
2021/05/11 15:35:22;;;;;;;9.20;4.40;;;18.60;57.30;;;;;;5017037;28;20048;-70
2021/05/11 15:37:53;;;;;;;8.23;4.13;;;19.00;56.20;;;;;;5016933;28;20446;-71
2021/05/11 15:40:20;;;;;;;8.57;3.50;;;19.00;56.40;;;;;;5019038;28;20219;-72
2021/05/11 15:42:46;;;;;;;8.18;3.53;;;18.60;56.60;;;;;;5024289;28;20090;-70
2021/05/11 15:45:12;;;;;;;10.20;3.58;;;18.50;56.80;;;;;;5016694;28;20037;-70
2021/05/11 15:47:38;;;;;;;10.02;3.55;;;18.30;57.10;;;;;;5013063;28;20069;-76
2021/05/11 15:50:05;;;;;;;11.38;3.45;;;18.30;57.10;;;;;;5015969;28;20045;-72
2021/05/11 15:52:31;;;;;;;8.80;3.20;;;18.30;56.30;;;;;;5015292;28;20038;-77
2021/05/11 15:54:57;;;;;;;8.45;3.65;;;18.40;55.60;;;;;;5013717;28;21841;-71
2021/05/11 15:57:23;;;;;;;7.45;3.15;;;18.60;55.50;;;;;;5018208;28;20068;-71
2021/05/11 15:59:48;;;;;;;7.97;3.20;;;18.50;55.40;;;;;;5015790;28;20138;-71
2021/05/11 16:02:14;;;;;;;6.72;2.92;;;18.30;54.20;;;;;;5013905;28;20075;-71
2021/05/11 16:04:40;;;;;;;9.02;3.83;;;18.10;54.60;;;;;;5014707;28;20875;-70
2021/05/11 16:07:05;;;;;;;9.07;4.13;;;18.30;55.90;;;;;;5015052;28;20080;-75
2021/05/11 16:09:31;;;;;;;8.38;3.72;;;18.30;55.40;;;;;;5018116;28;20381;-72
2021/05/11 16:11:57;;;;;;;7.60;3.97;;;18.30;55.20;;;;;;5017325;28;20076;-76
2021/05/11 16:14:23;;;;;;;8.02;4.07;;;18.10;55.80;;;;;;5018026;28;20346;-72
2021/05/11 16:16:49;;;;;;;7.18;3.30;;;17.80;57.60;;;;;;5015514;28;20612;-75
2021/05/11 16:19:15;;;;;;;10.15;3.60;;;17.70;57.50;;;;;;5016454;28;20103;-73
2021/05/11 16:21:40;;;;;;;6.82;3.67;;;17.80;57.70;;;;;;5016743;28;20056;-72
2021/05/11 16:24:06;;;;;;;9.60;5.28;;;17.60;58.20;;;;;;5019131;28;20030;-71
2021/05/11 16:26:32;;;;;;;12.82;7.30;;;17.20;60.10;;;;;;5015365;28;20529;-77
2021/05/11 16:28:58;;;;;;;12.05;7.47;;;17.20;61.40;;;;;;5016330;28;20041;-73
2021/05/11 16:31:24;;;;;;;12.38;9.40;;;17.30;62.00;;;;;;5017977;28;20049;-73
2021/05/11 16:33:50;;;;;;;14.88;9.85;;;17.20;62.70;;;;;;5015437;28;20075;-72
2021/05/11 16:36:16;;;;;;;16.83;12.13;;;17.10;63.40;;;;;;5018118;28;20595;-74
2021/05/11 16:38:42;;;;;;;14.50;10.05;;;17.20;64.00;;;;;;5015322;28;20041;-73
2021/05/11 16:41:09;;;;;;;12.70;8.60;;;17.00;63.60;;;;;;5015928;28;20041;-74
2021/05/11 16:43:35;;;;;;;12.75;9.07;;;17.00;63.40;;;;;;5012805;28;20068;-79
2021/05/11 16:46:05;;;;;;;14.82;8.48;;;16.80;63.50;;;;;;5016465;28;20052;-72
2021/05/11 16:48:32;;;;;;;11.63;6.70;;;16.70;63.60;;;;;;5014482;28;20107;-70
2021/05/11 16:50:59;;;;;;;14.20;8.98;;;16.80;63.90;;;;;;5014718;28;20029;-72
2021/05/11 16:53:24;;;;;;;13.15;8.52;;;16.60;64.20;;;;;;4993677;28;20042;-71
2021/05/11 16:55:50;;;;;;;13.63;8.88;;;16.60;65.50;;;;;;4995877;28;20679;-71
2021/05/11 16:58:16;;;;;;;18.63;9.00;;;16.50;66.10;;;;;;5004351;28;20041;-75
2021/05/11 17:00:43;;;;;;;10.73;8.73;;;16.40;65.90;;;;;;5015907;28;20041;-73
2021/05/11 17:03:09;;;;;;;14.77;9.10;;;16.30;67.70;;;;;;5016173;28;20029;-71
2021/05/11 17:05:35;;;;;;;21.15;13.05;;;16.30;68.40;;;;;;5013418;28;20045;-70
2021/05/11 17:08:04;;;;;;;17.30;9.45;;;16.50;69.30;;;;;;5012715;28;20556;-72
2021/05/11 17:10:32;;;;;;;13.73;8.52;;;16.60;70.80;;;;;;4998533;28;20084;-71
2021/05/11 17:12:59;;;;;;;10.38;7.40;;;16.70;70.80;;;;;;5015269;28;20038;-76
2021/05/11 17:15:27;;;;;;;9.82;4.95;;;16.70;71.80;;;;;;5000880;28;20076;-74
2021/05/11 17:17:52;;;;;;;12.70;5.30;;;16.50;72.20;;;;;;5002624;28;20041;-74
2021/05/11 17:20:24;;;;;;;12.23;6.03;;;16.40;74.40;;;;;;5014696;28;20044;-73
2021/05/11 17:22:50;;;;;;;10.07;5.13;;;16.30;76.30;;;;;;5014039;28;20596;-74